METAR Data
IDs: Format: Raw Decoded Include TAF

Data at: 1641 UTC 18 Feb 2019

METAR for:KOTM (Ottumwa Industrial, IA, US)
Text:KOTM 181553Z AUTO 32009KT 10SM CLR M07/M10 A3040 RMK AO2 SLP309 T10721100
Temperature: -7.2°C ( 19°F)
Dewpoint:-10.0°C ( 14°F) [RH = 80%]
Pressure (altimeter):30.40 inches Hg (1029.5 mb) [Sea level pressure: 1030.9 mb]
Winds:from the NW (320 degrees) at 10 MPH (9 knots; 4.6 m/s)
Visibility:10 or more sm (16+ km)
Ceiling:at least 12,000 feet AGL
Clouds:sky clear below 12,000 feet AGL
QC Flag:automated observation with no human augmentation